createdAt,value
2019-04-22T00:00:32.816Z,11.70
2019-04-22T00:03:03.055Z,10.43
2019-04-22T00:05:51.233Z,12.07
2019-04-22T00:08:25.035Z,11.10
2019-04-22T00:10:54.025Z,13.73
2019-04-22T00:13:26.202Z,10.43
2019-04-22T00:15:47.842Z,10.57
2019-04-22T00:18:30.485Z,11.90
2019-04-22T00:20:58.026Z,10.77
2019-04-22T00:23:25.663Z,13.40
2019-04-22T00:26:01.665Z,11.97
2019-04-22T00:28:41.176Z,16.07
2019-04-22T00:31:09.967Z,14.27
2019-04-22T00:33:31.947Z,11.33
2019-04-22T00:36:08.728Z,11.77
2019-04-22T00:38:38.710Z,14.97
2019-04-22T00:41:08.217Z,13.07
2019-04-22T00:43:45.803Z,12.73
2019-04-22T00:46:15.638Z,15.77
2019-04-22T00:48:44.546Z,13.30
2019-04-22T00:54:02.052Z,14.10
2019-04-22T00:56:28.227Z,14.47
2019-04-22T00:58:59.201Z,15.10
2019-04-22T01:01:32.193Z,16.37
2019-04-22T01:04:04.335Z,15.93
2019-04-22T01:06:44.538Z,14.90
2019-04-22T01:11:33.650Z,18.23
2019-04-22T01:14:13.081Z,16.50
2019-04-22T01:16:42.693Z,14.93
2019-04-22T01:19:16.132Z,17.43
2019-04-22T01:24:17.535Z,19.53
2019-04-22T01:26:43.580Z,15.90
2019-04-22T01:29:10.996Z,17.63
2019-04-22T01:31:34.067Z,18.37
2019-04-22T01:34:10.315Z,19.43
2019-04-22T01:36:47.426Z,20.57
2019-04-22T01:39:25.076Z,17.43
2019-04-22T01:42:03.894Z,20.27
2019-04-22T01:44:31.368Z,20.60
2019-04-22T01:47:00.244Z,15.47
2019-04-22T01:49:27.313Z,17.70
2019-04-22T01:51:58.673Z,17.67
2019-04-22T01:54:29.745Z,18.93
2019-04-22T01:59:20.114Z,18.60
2019-04-22T02:01:55.162Z,16.50
2019-04-22T02:04:35.074Z,18.20
2019-04-22T02:06:59.180Z,18.77
2019-04-22T02:09:31.231Z,21.03
2019-04-22T02:12:11.177Z,21.30
2019-04-22T02:14:39.915Z,22.63
2019-04-22T02:19:48.146Z,18.10
2019-04-22T02:22:07.054Z,20.37
2019-04-22T02:24:47.069Z,18.87
2019-04-22T02:27:17.707Z,20.73
2019-04-22T02:32:28.059Z,19.67
2019-04-22T02:35:01.258Z,20.87
2019-04-22T02:37:18.758Z,18.27
2019-04-22T02:39:57.297Z,23.53
2019-04-22T02:42:16.436Z,20.33
2019-04-22T02:45:20.878Z,19.63
2019-04-22T02:47:42.275Z,18.80
2019-04-22T02:50:09.187Z,22.00
2019-04-22T02:53:01.313Z,21.30
2019-04-22T02:55:32.991Z,22.20
2019-04-22T02:57:47.087Z,21.67
2019-04-22T03:00:21.560Z,21.70
2019-04-22T03:03:03.722Z,21.90
2019-04-22T03:05:21.980Z,24.20
2019-04-22T03:07:55.960Z,26.47
2019-04-22T03:10:20.557Z,21.40
2019-04-22T03:12:41.812Z,27.57
2019-04-22T03:15:12.127Z,23.83
2019-04-22T03:17:47.431Z,24.00
2019-04-22T03:22:47.643Z,23.90
2019-04-22T03:27:42.737Z,24.80
2019-04-22T03:33:12.489Z,24.50
2019-04-22T03:47:53.578Z,27.70
2019-04-22T03:50:22.647Z,26.77
2019-04-22T03:52:47.161Z,22.87
2019-04-22T03:55:15.017Z,29.80
2019-04-22T04:00:30.830Z,24.73
2019-04-22T04:10:30.169Z,28.93
2019-04-22T04:15:21.157Z,24.77
2019-04-22T04:28:11.300Z,26.90
2019-04-22T04:30:26.482Z,26.80
2019-04-22T04:32:52.517Z,29.77
2019-04-22T04:40:29.214Z,28.83
2019-04-22T04:42:54.403Z,31.90
2019-04-22T04:53:02.614Z,30.80
2019-04-22T05:05:25.193Z,28.63
2019-04-22T05:15:19.271Z,31.90
2019-04-22T05:20:29.366Z,31.90
2019-04-22T05:30:23.422Z,30.00
2019-04-22T05:32:42.976Z,32.17
2019-04-22T05:35:20.387Z,33.03
2019-04-22T05:37:45.844Z,30.67
2019-04-22T05:40:20.149Z,34.83
2019-04-22T05:42:46.203Z,33.03
2019-04-22T05:45:17.851Z,33.67
2019-04-22T05:47:46.309Z,32.20
2019-04-22T05:50:13.010Z,37.07
2019-04-22T05:52:54.381Z,36.07
2019-04-22T05:55:22.437Z,35.07
2019-04-22T05:57:51.197Z,31.50
2019-04-22T06:00:36.928Z,36.63
2019-04-22T06:05:24.948Z,39.53
2019-04-22T06:07:53.370Z,33.67
2019-04-22T06:10:41.131Z,36.10
2019-04-22T06:12:48.028Z,38.63
2019-04-22T06:15:24.215Z,32.00
2019-04-22T06:18:05.611Z,30.70
2019-04-22T06:20:25.542Z,36.13
2019-04-22T06:22:58.471Z,38.53
2019-04-22T06:25:27.779Z,34.43
2019-04-22T06:27:57.509Z,34.33
2019-04-22T06:30:29.103Z,40.63
2019-04-22T06:32:53.801Z,35.93
2019-04-22T06:35:33.298Z,38.03
2019-04-22T06:38:18.901Z,39.27
2019-04-22T06:40:27.510Z,37.83
2019-04-22T06:42:58.043Z,33.63
2019-04-22T06:45:24.578Z,34.33
2019-04-22T06:48:02.335Z,35.73
2019-04-22T06:50:33.922Z,39.70
2019-04-22T06:52:57.217Z,36.47
2019-04-22T06:55:33.007Z,34.53
2019-04-22T06:57:59.829Z,37.70
2019-04-22T07:03:24.109Z,34.07
2019-04-22T07:05:28.517Z,41.20
2019-04-22T07:08:04.145Z,32.70
2019-04-22T07:10:40.463Z,38.33
2019-04-22T07:12:53.888Z,33.97
2019-04-22T07:15:46.364Z,32.97
2019-04-22T07:18:04.110Z,39.40
2019-04-22T07:20:33.347Z,34.43
2019-04-22T07:23:06.700Z,37.57
2019-04-22T07:28:05.177Z,36.00
2019-04-22T07:30:35.048Z,36.20
2019-04-22T07:35:36.539Z,36.83
2019-04-22T07:38:07.858Z,33.17
2019-04-22T07:40:40.362Z,33.27
2019-04-22T07:43:04.302Z,33.80
2019-04-22T07:45:38.262Z,35.13
2019-04-22T07:48:18.854Z,32.83
2019-04-22T07:50:50.658Z,33.07
2019-04-22T07:53:08.487Z,33.83
2019-04-22T07:55:43.398Z,40.93
2019-04-22T07:58:15.540Z,30.57
2019-04-22T08:03:11.751Z,30.03
2019-04-22T08:05:45.887Z,28.00
2019-04-22T08:08:13.190Z,30.70
2019-04-22T08:10:43.893Z,30.83
2019-04-22T08:13:04.904Z,32.37
2019-04-22T08:15:42.031Z,32.40
2019-04-22T08:23:09.155Z,32.30
2019-04-22T08:25:38.843Z,30.67
2019-04-22T08:28:10.655Z,30.93
2019-04-22T08:30:41.436Z,33.00
2019-04-22T08:33:16.002Z,29.23
2019-04-22T08:38:14.929Z,26.97
2019-04-22T08:40:47.207Z,28.87
2019-04-22T08:45:46.190Z,27.50
2019-04-22T08:48:11.093Z,29.10
2019-04-22T08:50:44.668Z,29.73
2019-04-22T08:53:19.666Z,29.50
2019-04-22T08:55:51.521Z,30.40
2019-04-22T08:58:21.410Z,28.90
2019-04-22T09:00:50.960Z,28.30
2019-04-22T09:03:11.059Z,23.70
2019-04-22T09:08:21.250Z,24.70
2019-04-22T09:10:46.837Z,27.70
2019-04-22T09:13:31.844Z,23.23
2019-04-22T09:15:45.103Z,26.50
2019-04-22T09:18:14.224Z,23.17
2019-04-22T09:20:53.449Z,29.53
2019-04-22T09:23:21.470Z,23.87
2019-04-22T09:25:46.773Z,25.47
2019-04-22T09:28:17.518Z,21.70
2019-04-22T09:30:47.030Z,21.83
2019-04-22T09:38:25.764Z,31.13
2019-04-22T09:40:48.461Z,27.70
2019-04-22T09:43:16.981Z,23.87
2019-04-22T09:45:43.374Z,26.37
2019-04-22T09:48:16.319Z,26.77
2019-04-22T09:53:14.811Z,24.30
2019-04-22T09:55:43.189Z,21.33
2019-04-22T09:58:16.578Z,24.33
2019-04-22T10:01:03.068Z,25.43
2019-04-22T10:03:22.176Z,22.20
2019-04-22T10:05:58.260Z,24.83
2019-04-22T10:08:34.052Z,20.53
2019-04-22T10:11:00.849Z,22.53
2019-04-22T10:13:32.019Z,20.33
2019-04-22T10:15:58.930Z,113.50
2019-04-22T10:18:25.825Z,23.80
2019-04-22T10:20:54.082Z,20.60
2019-04-22T10:23:25.395Z,24.83
2019-04-22T10:25:52.614Z,20.77
2019-04-22T10:28:23.405Z,20.10
2019-04-22T10:33:14.982Z,17.60
2019-04-22T10:35:30.662Z,17.60
2019-04-22T10:37:58.503Z,19.73
2019-04-22T10:40:36.311Z,19.03
2019-04-22T10:43:05.587Z,16.17
2019-04-22T10:45:34.468Z,19.37
2019-04-22T10:48:04.065Z,20.97
2019-04-22T10:50:43.167Z,18.03
2019-04-22T10:53:13.337Z,17.73
2019-04-22T10:55:44.907Z,18.63
2019-04-22T10:58:12.883Z,17.77
2019-04-22T11:00:42.071Z,17.20
2019-04-22T11:03:11.871Z,19.40
2019-04-22T11:05:42.130Z,20.80
2019-04-22T11:08:22.581Z,20.87
2019-04-22T11:10:56.372Z,17.77
2019-04-22T11:13:10.958Z,20.53
2019-04-22T11:15:40.477Z,21.57
2019-04-22T11:18:09.489Z,17.40
2019-04-22T11:20:39.771Z,15.23
2019-04-22T11:23:08.869Z,17.05
2019-04-22T11:25:37.567Z,16.37
2019-04-22T11:28:07.401Z,15.55
2019-04-22T11:30:36.733Z,14.47
2019-04-22T11:33:06.630Z,15.88
2019-04-22T11:35:35.274Z,13.32
2019-04-22T11:38:04.583Z,12.13
2019-04-22T11:40:38.441Z,13.50
2019-04-22T11:43:04.030Z,14.38
2019-04-22T11:45:33.395Z,13.68
2019-04-22T11:48:01.651Z,15.45
2019-04-22T11:50:31.659Z,12.58
2019-04-22T11:53:00.778Z,13.98
2019-04-22T11:55:30.721Z,20.40
2019-04-22T11:58:00.934Z,15.68
2019-04-22T12:00:32.781Z,17.60
2019-04-22T12:03:01.223Z,16.42
2019-04-22T12:05:29.984Z,15.15
2019-04-22T12:07:59.286Z,15.18
2019-04-22T12:10:36.677Z,14.83
2019-04-22T12:12:57.830Z,15.53
2019-04-22T12:15:26.772Z,11.78
2019-04-22T12:17:55.336Z,11.25
2019-04-22T12:20:25.379Z,15.28
2019-04-22T12:22:53.844Z,17.45
2019-04-22T12:25:32.304Z,11.10
2019-04-22T12:27:52.949Z,9.75
2019-04-22T12:30:21.457Z,16.97
2019-04-22T12:32:50.523Z,15.43
2019-04-22T12:35:19.851Z,10.03
2019-04-22T12:37:54.106Z,10.98
2019-04-22T12:40:30.111Z,11.15
2019-04-22T12:42:49.185Z,9.50
2019-04-22T12:45:18.356Z,8.53
2019-04-22T12:47:48.233Z,10.58
2019-04-22T12:50:24.107Z,10.28
2019-04-22T12:52:53.314Z,10.15
2019-04-22T12:55:25.839Z,15.45
2019-04-22T12:57:55.391Z,15.20
2019-04-22T13:00:26.636Z,8.30
2019-04-22T13:02:55.201Z,5.87
2019-04-22T13:05:25.086Z,10.05
2019-04-22T13:07:53.807Z,7.03
2019-04-22T13:10:22.210Z,13.15
2019-04-22T13:12:50.974Z,10.45
2019-04-22T13:15:20.075Z,10.88
2019-04-22T13:18:01.087Z,7.17
2019-04-22T13:20:20.312Z,26.68
2019-04-22T13:22:48.677Z,11.18
2019-04-22T13:25:17.649Z,11.08
2019-04-22T13:27:46.816Z,10.30
2019-04-22T13:30:16.492Z,6.58
2019-04-22T13:32:44.916Z,9.93
2019-04-22T13:35:13.238Z,14.53
2019-04-22T13:37:41.491Z,9.40
2019-04-22T13:40:10.906Z,7.70
2019-04-22T13:42:40.697Z,11.75
2019-04-22T13:45:09.783Z,5.50
2019-04-22T13:48:00.420Z,9.00
2019-04-22T13:53:26.178Z,9.35
2019-04-22T13:55:44.960Z,6.55
2019-04-22T13:57:58.379Z,8.70
2019-04-22T14:00:18.429Z,9.98
2019-04-22T14:02:52.701Z,12.23
2019-04-22T14:05:26.894Z,12.30
2019-04-22T14:07:57.578Z,12.28
2019-04-22T14:10:26.846Z,5.90
2019-04-22T14:12:56.776Z,9.80
2019-04-22T14:15:25.640Z,6.72
2019-04-22T14:17:54.692Z,11.45
2019-04-22T14:20:25.837Z,10.30
2019-04-22T14:22:54.664Z,8.50
2019-04-22T14:25:24.782Z,10.82
2019-04-22T14:28:01.246Z,12.23
2019-04-22T14:30:24.287Z,24.10
2019-04-22T14:32:54.076Z,16.60
2019-04-22T14:35:23.034Z,22.22
2019-04-22T14:37:52.245Z,18.40
2019-04-22T14:40:22.989Z,12.75
2019-04-22T14:43:05.936Z,12.65
2019-04-22T14:45:58.048Z,11.85
2019-04-22T14:48:22.669Z,18.05
2019-04-22T14:50:46.963Z,10.78
2019-04-22T14:53:19.559Z,12.15
2019-04-22T14:55:26.920Z,15.03
2019-04-22T14:57:55.046Z,11.05
2019-04-22T15:00:29.562Z,8.85
2019-04-22T15:02:59.612Z,10.10
2019-04-22T15:05:28.322Z,11.90
2019-04-22T15:07:57.203Z,12.05
2019-04-22T15:10:28.115Z,15.90
2019-04-22T15:12:58.769Z,10.25
2019-04-22T15:15:35.840Z,8.20
2019-04-22T15:18:21.991Z,10.90
2019-04-22T15:20:58.775Z,12.10
2019-04-22T15:23:28.349Z,10.75
2019-04-22T15:25:57.185Z,12.28
2019-04-22T15:28:25.478Z,9.43
2019-04-22T15:30:55.455Z,8.48
2019-04-22T15:33:25.633Z,10.68
2019-04-22T15:35:55.422Z,11.20
2019-04-22T15:38:24.396Z,9.38
2019-04-22T15:40:54.549Z,9.30
2019-04-22T15:43:27.006Z,9.98
2019-04-22T15:45:53.074Z,11.35
2019-04-22T15:48:21.347Z,11.67
2019-04-22T15:50:50.764Z,7.87
2019-04-22T15:53:20.073Z,15.03
2019-04-22T15:55:48.541Z,15.40
2019-04-22T15:58:17.599Z,14.00
2019-04-22T16:00:57.678Z,11.77
2019-04-22T16:03:16.440Z,31.70
2019-04-22T16:05:46.066Z,11.93
2019-04-22T16:08:15.077Z,9.17
2019-04-22T16:10:43.971Z,6.42
2019-04-22T16:13:20.164Z,7.57
2019-04-22T16:15:42.778Z,7.67
2019-04-22T16:18:13.411Z,10.50
2019-04-22T16:20:41.287Z,8.20
2019-04-22T16:23:13.044Z,22.57
2019-04-22T16:25:45.299Z,14.07
2019-04-22T16:28:15.275Z,9.10
2019-04-22T16:30:45.446Z,5.83
2019-04-22T16:33:15.177Z,6.70
2019-04-22T16:35:44.938Z,9.97
2019-04-22T16:38:14.922Z,21.23
2019-04-22T16:40:43.400Z,7.40
2019-04-22T16:43:13.514Z,10.07
2019-04-22T16:45:43.298Z,8.27
2019-04-22T16:48:11.764Z,7.50
2019-04-22T16:50:42.799Z,7.47
2019-04-22T16:53:10.268Z,10.43
2019-04-22T16:55:39.157Z,8.03
2019-04-22T16:58:07.601Z,7.97
2019-04-22T17:00:36.568Z,8.10
2019-04-22T17:03:18.892Z,8.10
2019-04-22T17:06:05.409Z,7.22
2019-04-22T17:08:34.848Z,30.20
2019-04-22T17:11:04.194Z,10.73
2019-04-22T17:13:34.211Z,16.20
2019-04-22T17:16:02.844Z,31.43
2019-04-22T17:18:33.157Z,10.50
2019-04-22T17:21:04.679Z,12.90
2019-04-22T17:23:31.753Z,9.10
2019-04-22T17:26:00.784Z,9.03
2019-04-22T17:28:29.555Z,7.20
2019-04-22T17:30:57.877Z,10.10
2019-04-22T17:33:26.464Z,7.00
2019-04-22T17:35:55.058Z,6.50
2019-04-22T17:38:30.170Z,11.27
2019-04-22T17:41:09.061Z,5.37
2019-04-22T17:43:53.823Z,11.17
2019-04-22T17:46:10.755Z,6.77
2019-04-22T17:48:57.551Z,9.13
2019-04-22T17:51:34.487Z,6.73
2019-04-22T17:54:02.586Z,10.97
2019-04-22T17:56:33.975Z,6.40
2019-04-22T17:59:02.715Z,7.40
2019-04-22T18:01:29.936Z,9.43
2019-04-22T18:03:47.593Z,6.83
2019-04-22T18:06:28.018Z,8.23
2019-04-22T18:09:02.197Z,9.00
2019-04-22T18:11:39.918Z,8.83
2019-04-22T18:14:16.169Z,9.33
2019-04-22T18:16:34.672Z,7.30
2019-04-22T18:19:01.126Z,7.57
2019-04-22T18:21:28.870Z,10.07
2019-04-22T18:23:52.891Z,6.53
2019-04-22T18:26:26.186Z,15.10
2019-04-22T18:29:00.893Z,13.07
2019-04-22T18:31:26.066Z,7.90
2019-04-22T18:33:54.533Z,5.80
2019-04-22T18:36:29.203Z,9.43
2019-04-22T18:39:04.297Z,5.20
2019-04-22T18:41:30.478Z,4.33
2019-04-22T18:44:06.303Z,8.20
2019-04-22T18:46:31.539Z,8.97
2019-04-22T18:49:03.376Z,4.70
2019-04-22T18:51:40.921Z,5.30
2019-04-22T18:54:11.847Z,5.60
2019-04-22T18:56:42.158Z,6.90
2019-04-22T18:59:07.688Z,5.20
2019-04-22T19:01:23.940Z,9.80
2019-04-22T19:04:01.358Z,5.03
2019-04-22T19:06:45.963Z,9.40
2019-04-22T19:09:15.343Z,4.57
2019-04-22T19:11:51.922Z,5.27
2019-04-22T19:14:37.236Z,7.83
2019-04-22T19:17:07.613Z,6.23
2019-04-22T19:21:43.307Z,6.97
2019-04-22T19:24:09.112Z,4.97
2019-04-22T19:26:58.722Z,7.33
2019-04-22T19:29:17.401Z,3.47
2019-04-22T19:31:45.876Z,5.60
2019-04-22T19:34:16.186Z,5.33
2019-04-22T19:36:46.933Z,4.37
2019-04-22T19:39:10.513Z,7.10
2019-04-22T19:41:49.073Z,7.17
2019-04-22T19:44:16.475Z,8.10
2019-04-22T19:46:52.924Z,9.17
2019-04-22T19:49:24.589Z,5.50
2019-04-22T19:51:52.432Z,7.20
2019-04-22T19:54:14.024Z,4.87
2019-04-22T19:56:38.791Z,4.03
2019-04-22T19:59:09.372Z,3.90
2019-04-22T20:01:48.638Z,9.00
2019-04-22T20:04:28.338Z,9.97
2019-04-22T20:07:11.236Z,6.00
2019-04-22T20:09:46.760Z,5.90
2019-04-22T20:12:11.748Z,4.63
2019-04-22T20:14:46.383Z,7.17
2019-04-22T20:17:08.027Z,3.57
2019-04-22T20:19:51.214Z,4.67
2019-04-22T20:22:12.883Z,2.93
2019-04-22T20:24:28.097Z,3.07
2019-04-22T20:27:13.627Z,3.93
2019-04-22T20:29:42.109Z,4.13
2019-04-22T20:32:12.001Z,4.00
2019-04-22T20:34:44.567Z,5.37
2019-04-22T20:37:15.162Z,4.50
2019-04-22T20:39:44.435Z,3.23
2019-04-22T20:42:23.917Z,6.67
2019-04-22T20:44:50.449Z,3.73
2019-04-22T20:47:09.011Z,5.60
2019-04-22T20:49:41.601Z,3.50
2019-04-22T20:52:27.813Z,5.80
2019-04-22T20:54:40.161Z,4.23
2019-04-22T20:57:09.805Z,6.90
2019-04-22T20:59:42.930Z,4.47
2019-04-22T21:02:07.966Z,4.70
2019-04-22T21:04:32.353Z,3.97
2019-04-22T21:07:09.107Z,9.30
2019-04-22T21:09:41.124Z,4.23
2019-04-22T21:12:05.099Z,2.77
2019-04-22T21:14:44.199Z,3.40
2019-04-22T21:17:13.826Z,7.23
2019-04-22T21:19:49.767Z,4.87
2019-04-22T21:22:16.010Z,7.73
2019-04-22T21:24:42.138Z,2.43
2019-04-22T21:27:13.829Z,6.47
2019-04-22T21:29:40.846Z,3.07
2019-04-22T21:32:15.616Z,6.20
2019-04-22T21:34:54.041Z,7.23
2019-04-22T21:37:20.827Z,3.07
2019-04-22T21:39:40.650Z,3.83
2019-04-22T21:42:14.285Z,3.27
2019-04-22T21:44:38.076Z,6.73
2019-04-22T21:49:54.704Z,5.40
2019-04-22T21:52:18.127Z,4.90
2019-04-22T21:54:47.037Z,5.40
2019-04-22T21:57:35.256Z,3.77
2019-04-22T22:00:03.543Z,5.07
2019-04-22T22:02:31.429Z,4.27
2019-04-22T22:04:54.798Z,4.97
2019-04-22T22:07:16.074Z,4.17
2019-04-22T22:10:02.170Z,7.03
2019-04-22T22:12:36.105Z,3.83
2019-04-22T22:15:04.082Z,3.77
2019-04-22T22:17:30.762Z,5.80
2019-04-22T22:20:01.959Z,5.47
2019-04-22T22:25:04.212Z,5.80
2019-04-22T22:27:34.236Z,1.97
2019-04-22T22:30:18.727Z,4.93
2019-04-22T22:32:35.052Z,4.73
2019-04-22T22:35:02.995Z,4.97
2019-04-22T22:37:21.889Z,2.53
2019-04-22T22:39:51.397Z,3.43
2019-04-22T22:42:19.073Z,4.70
2019-04-22T22:44:47.753Z,3.17
2019-04-22T22:47:34.267Z,4.27
2019-04-22T22:50:05.899Z,4.60
2019-04-22T22:52:53.160Z,5.13
2019-04-22T22:55:04.107Z,3.30
2019-04-22T22:57:35.195Z,2.37
2019-04-22T23:00:02.062Z,4.90
2019-04-22T23:02:34.161Z,4.43
2019-04-22T23:05:05.378Z,5.50
2019-04-22T23:07:37.399Z,6.47
2019-04-22T23:10:00.224Z,4.20
2019-04-22T23:12:40.550Z,2.23
2019-04-22T23:14:59.314Z,7.57
2019-04-22T23:17:16.943Z,1.77
2019-04-22T23:19:46.633Z,5.67
2019-04-22T23:22:17.873Z,3.57
2019-04-22T23:25:17.346Z,5.73
2019-04-22T23:27:40.696Z,7.00
2019-04-22T23:30:19.654Z,6.60
2019-04-22T23:32:58.151Z,3.57
2019-04-22T23:35:33.146Z,5.47
2019-04-22T23:38:01.325Z,7.77
2019-04-22T23:40:38.465Z,4.37
2019-04-22T23:43:09.063Z,2.20
2019-04-22T23:46:01.688Z,3.47
2019-04-22T23:48:22.589Z,2.73
2019-04-22T23:51:03.345Z,3.10
2019-04-22T23:53:57.901Z,4.97
2019-04-22T23:56:04.196Z,4.37
